Devils Lake, ND (58301)

1:26 PM CDT on July 29, 2016 (GMT -0500)
Lake Region RadioWorks | | Change Station

Elev 1431 ft 48.11 °N, 98.87 °W | Updated 1 minute ago

Scattered Clouds
Scattered Clouds
73.3 °F
Feels Like 76 °F
N
6.0
Wind Variable Wind from SE
Gusts 7.0 mph

Today
High -- | Low -- °F
--% Chance of Precip.
Yesterday
High -- | Low -- °F
Precip. -- in
Pressure 30.13 in
Visibility 10.0 miles
Clouds Scattered Clouds 3700 ft
Heat Index 76 °F
Dew Point 60 °F
Humidity 62%
Rainfall 0.00 in
Snow Depth Not available.
6:08 AM 9:14 PM
Waning Crescent, 20% visible
METAR KDVL 291756Z AUTO 15006KT 10SM SCT037 22/14 A3009 RMK AO2 SLP201 T02220144 10233 20139 56008 TSNO
Pressure 30.13 in
Visibility 10.0 miles
Clouds Scattered Clouds 3700 ft
Heat Index 76 °F
Dew Point 60 °F
Humidity 62%
Rainfall 0.00 in
Snow Depth Not available.
6:08 AM 9:14 PM
Waning Crescent, 20% visible
METAR KDVL 291756Z AUTO 15006KT 10SM SCT037 22/14 A3009 RMK AO2 SLP201 T02220144 10233 20139 56008 TSNO

10-Day Weather Forecast

Almanac

Astronomy

Jul. 29, 2016 Rise Set
Actual Time
Civil Twilight
Nautical Twilight
Astronomical Twilight
Moon
Length of Visible Light
Length of Day
Tomorrow will be .
, % of the Moon is Illuminated

Today's Extremes

State Highs State Lows

Community

WunderPhotos

Upload Photos

1,928,392 photos uploaded!

WunderBlog® & News

Nearby

Air Quality

  Air Quality AQ Index Pollutant
Not available.

Snow Depth

Station Depth Elevation

Earthquake Activity

City Distance Mag. Time & Date
Minimum magnitude displayed is 2.5.

Coastal Water Temperatures

Place Temperature

Stations

Nearby Weather Stations

Station Location Temp. Windchill Dew Point Humidity Wind Precip. Elev Updated Type
                   

Watches & Warnings

There are currently no watches in effect.